Latest Weather Observations for Holsworthy

IDN60801

Issued at 5:32 am EST Wednesday 25 May 2016 (issued every 30 minutes, with the page automatically refreshed every 10 minutes)

About weather observations | Map of weather stations | Latest weather observations for NSW | Other Formats
Station Details ID: 066161 Name: HOLSWORTHY AERODROME AWS Lat: -33.99 Lon: 150.95 Height: 68.16 m
Data from the previous 72 hours. | See also: Recent months at Holsworthy
Date/Time
EST
Temp
°C
App
Temp
°C
Dew
Point
Rel
Hum
%
Delta-T
°C
Wind Press
QNH
hPa
Press
MSL
hPa
Rain
since 9 am
mm
Dir
 
Spd
km/h
Gust
km/h
Spd
kts
Gust
kts
25/05:30am 5.2 2.1 3.4 88 0.7 SW 9 11 5 6 1016.7 1016.6 0.0
25/05:00am 4.1 1.1 2.0 86 0.8 W 7 9 4 5 1016.7 1016.6 0.0
25/04:30am 5.4 2.7 2.9 84 1.0 SSW 6 9 3 5 1016.7 1016.6 0.0
25/04:00am 6.0 3.2 3.2 82 1.2 SW 7 9 4 5 1016.8 1016.7 0.0
25/03:30am 6.6 4.1 3.6 81 1.3 SW 6 7 3 4 1016.8 1016.7 0.0
25/03:00am 6.8 4.0 2.9 76 1.6 SSW 7 9 4 5 1016.7 1016.6 0.0
25/02:30am 9.1 6.6 3.9 70 2.3 SSW 6 11 3 6 1017.1 1017.0 0.0
25/02:00am 9.3 6.3 4.1 70 2.3 SSW 9 13 5 7 1017.2 1017.1 0.0
25/01:30am 9.7 6.4 4.3 69 2.4 SSW 11 15 6 8 1017.1 1017.0 0.0
25/01:00am 8.6 5.6 4.2 74 1.9 SSE 9 13 5 7 1017.5 1017.4 0.0
25/12:30am 8.3 5.7 3.2 70 2.2 SW 6 7 3 4 1017.5 1017.4 0.0
25/12:00am 9.6 6.9 3.8 67 2.5 SW 7 11 4 6 1017.6 1017.5 0.0
 
Date/Time
EST
Temp
°C
App
Temp
°C
Dew
Point
Rel
Hum
%
Delta-T
°C
Wind Press
QNH
hPa
Press
MSL
hPa
Rain
since 9 am
mm
Dir
 
Spd
km/h
Gust
km/h
Spd
kts
Gust
kts
24/11:30pm 9.8 6.3 3.3 64 2.8 SW 11 13 6 7 1017.6 1017.5 0.0
24/11:00pm 10.4 7.0 3.9 64 2.9 SW 11 15 6 8 1017.8 1017.7 0.0
24/10:30pm 10.3 6.5 3.8 64 2.9 WSW 13 17 7 9 1017.7 1017.6 0.0
24/10:00pm 9.9 7.1 3.4 64 2.8 WNW 7 11 4 6 1017.6 1017.5 0.0
24/09:30pm 10.2 8.8 3.3 62 3.0 CALM 0 0 0 0 1017.7 1017.6 0.0
24/09:00pm 11.7 8.9 3.2 56 3.7 SSW 7 9 4 5 1017.7 1017.6 0.0
24/08:30pm 13.5 9.7 3.8 52 4.4 WSW 13 19 7 10 1017.4 1017.3 0.0
24/08:00pm 14.0 9.8 3.8 50 4.6 W 15 22 8 12 1017.0 1016.9 0.0
24/07:30pm 14.3 10.0 3.5 48 4.9 W 15 24 8 13 1016.6 1016.5 0.0
24/07:00pm 14.8 10.8 3.0 45 5.3 W 13 26 7 14 1016.2 1016.1 0.0
24/06:30pm 14.6 10.2 2.8 45 5.3 W 15 20 8 11 1015.6 1015.5 0.0
24/06:00pm 14.9 10.8 2.4 43 5.6 W 13 17 7 9 1015.6 1015.5 0.0
24/05:30pm 15.7 12.2 1.4 38 6.3 W 9 13 5 7 1015.4 1015.3 0.0
24/05:00pm 17.1 12.4 0.7 33 7.2 W 15 26 8 14 1015.0 1014.9 0.0
24/04:30pm 18.6 13.5 0.7 30 7.9 W 17 24 9 13 1014.7 1014.6 0.0
24/04:00pm 19.4 13.9 0.4 28 8.4 W 19 28 10 15 1014.7 1014.6 0.0
24/03:30pm 19.9 14.3 -0.1 26 8.8 W 19 33 10 18 1014.5 1014.4 0.0
24/03:00pm 20.5 14.7 -0.2 25 9.2 WSW 20 30 11 16 1014.1 1014.1 0.0
24/02:30pm 21.0 15.7 -0.3 24 9.5 W 17 26 9 14 1013.9 1013.9 0.0
24/02:00pm 20.5 14.9 -0.2 25 9.2 W 19 28 10 15 1013.9 1013.9 0.0
24/01:30pm 20.1 14.4 0.5 27 8.8 W 20 28 11 15 1014.1 1014.1 0.0
24/01:00pm 20.0 13.9 0.5 27 8.7 WSW 22 48 12 26 1014.2 1014.2 0.0
24/12:30pm 19.4 13.4 0.9 29 8.3 WSW 22 35 12 19 1015.0 1014.9 0.0
24/12:00pm 19.4 14.5 2.3 32 7.9 W 17 26 9 14 1015.5 1015.4 0.0
24/11:30am 18.3 13.1 2.6 35 7.2 W 19 28 10 15 1016.1 1016.0 0.0
24/11:00am 17.3 12.2 3.2 39 6.5 WNW 19 28 10 15 1017.1 1017.0 0.0
24/10:30am 16.8 11.7 4.2 43 5.9 W 20 32 11 17 1017.6 1017.5 0.0
24/10:00am 15.8 11.4 4.8 48 5.2 WSW 17 26 9 14 1018.1 1018.0 0.0
24/09:30am 13.6 10.3 4.7 55 4.1 W 11 19 6 10 1018.3 1018.2 0.0
24/09:00am 12.8 9.4 4.0 55 4.0 W 11 15 6 8 1018.4 1018.3 0.0
24/08:30am 11.1 8.1 4.1 62 3.1 WSW 9 11 5 6 1018.6 1018.5 0.0
24/08:00am 9.3 6.1 3.1 65 2.7 WSW 9 13 5 7 1018.4 1018.3 0.0
24/07:30am 7.7 4.6 3.4 74 1.8 WSW 9 13 5 7 1018.1 1018.0 0.0
24/07:00am 5.7 2.4 2.5 80 1.3 WSW 9 11 5 6 1018.0 1017.9 0.0
24/06:30am 6.5 3.2 2.6 76 1.6 WSW 9 11 5 6 1017.8 1017.7 0.0
24/06:00am 6.9 3.3 3.0 76 1.6 W 11 13 6 7 1017.7 1017.6 0.0
24/05:30am 6.6 3.3 2.7 76 1.6 WSW 9 13 5 7 1018.1 1018.0 0.0
24/05:00am 8.5 5.0 3.4 70 2.2 W 11 17 6 9 1018.4 1018.3 0.0
24/04:30am 8.5 5.3 2.9 68 2.4 WSW 9 13 5 7 1018.4 1018.3 0.0
24/04:00am 8.5 5.3 2.9 68 2.4 WSW 9 11 5 6 1018.4 1018.3 0.0
24/03:30am 7.9 4.6 2.6 69 2.2 WSW 9 15 5 8 1018.5 1018.4 0.0
24/03:00am 9.0 4.6 2.8 65 2.6 WSW 15 20 8 11 1018.6 1018.5 0.0
24/02:30am 8.0 3.8 1.8 65 2.6 W 13 20 7 11 1018.8 1018.7 0.0
24/02:00am 9.4 5.8 2.7 63 2.9 SW 11 15 6 8 1018.9 1018.8 0.0
24/01:30am 8.1 4.7 2.1 66 2.5 SW 9 13 5 7 1019.0 1018.9 0.0
24/01:00am 7.8 4.4 2.1 67 2.4 SW 9 11 5 6 1018.8 1018.7 0.0
24/12:30am 9.0 5.8 2.8 65 2.6 SW 9 13 5 7 1018.7 1018.6 0.0
24/12:00am 8.9 5.6 2.5 64 2.7 WSW 9 13 5 7 1018.4 1018.3 0.0
 
Date/Time
EST
Temp
°C
App
Temp
°C
Dew
Point
Rel
Hum
%
Delta-T
°C
Wind Press
QNH
hPa
Press
MSL
hPa
Rain
since 9 am
mm
Dir
 
Spd
km/h
Gust
km/h
Spd
kts
Gust
kts
23/11:30pm 9.9 6.6 2.5 60 3.2 WSW 9 13 5 7 1018.4 1018.3 0.0
23/11:00pm 10.6 6.9 2.4 57 3.5 WSW 11 15 6 8 1018.4 1018.3 0.0
23/10:30pm 12.2 8.2 2.6 52 4.2 W 13 19 7 10 1018.2 1018.1 0.0
23/10:00pm 13.0 8.6 2.8 50 4.5 W 15 20 8 11 1018.2 1018.1 0.0
23/09:30pm 13.6 9.2 2.8 48 4.8 W 15 20 8 11 1018.1 1018.0 0.0
23/09:00pm 14.1 8.9 2.7 46 5.1 W 19 26 10 14 1017.7 1017.6 0.0
23/08:30pm 14.4 9.5 2.3 44 5.4 W 17 30 9 16 1017.7 1017.6 0.0
23/08:00pm 14.8 9.5 2.0 42 5.6 W 19 28 10 15 1017.5 1017.4 0.0
23/07:30pm 14.8 10.5 1.3 40 5.9 W 13 22 7 12 1017.2 1017.1 0.0
23/07:00pm 16.1 10.1 1.0 36 6.6 W 22 35 12 19 1017.0 1016.9 0.0
23/06:30pm 16.6 10.2 0.7 34 6.9 W 24 35 13 19 1016.2 1016.1 0.0
23/06:00pm 17.0 11.9 0.6 33 7.2 W 17 26 9 14 1016.1 1016.0 0.0
23/05:30pm 17.2 12.7 -0.1 31 7.5 WSW 13 20 7 11 1015.6 1015.5 0.0
23/05:00pm 18.2 12.9 -0.6 28 8.1 WSW 17 26 9 14 1015.2 1015.1 0.0
23/04:35pm 19.8 12.3 -1.3 24 9.1 WSW 28 82 15 44 1014.9 1014.8 0.0
23/04:30pm 19.8 12.7 -1.3 24 9.1 WSW 26 41 14 22 1014.8 1014.7 0.0
23/04:00pm 21.0 14.6 -1.5 22 9.8 WSW 22 37 12 20 1014.2 1014.2 0.0
23/03:30pm 21.8 16.2 1.5 26 9.4 WSW 20 33 11 18 1013.9 1013.9 0.0
23/03:00pm 22.1 15.4 1.2 25 9.6 WSW 26 44 14 24 1013.4 1013.4 0.0
23/02:46pm 22.4 14.6 1.4 25 9.8 WSW 32 52 17 28 1013.1 1013.1 0.0
23/02:30pm 22.8 15.8 4.3 30 9.1 WSW 30 44 16 24 1012.8 1012.8 0.0
23/02:00pm 22.6 17.7 8.3 40 7.6 WSW 24 43 13 23 1012.3 1012.3 0.0
23/01:30pm 23.1 19.5 10.5 45 7.0 WSW 20 32 11 17 1012.4 1012.4 0.0
23/01:00pm 22.7 18.5 11.1 48 6.5 WSW 24 37 13 20 1012.4 1012.4 0.0
23/12:46pm 23.2 17.3 10.6 45 7.0 WSW 32 54 17 29 1012.3 1012.3 0.0
23/12:30pm 24.1 19.1 11.1 44 7.3 WSW 28 37 15 20 1012.2 1012.2 0.0
23/12:03pm 26.3 21.2 10.5 37 8.9 WNW 28 48 15 26 1011.5 1011.5 0.0
23/12:00pm 26.4 22.4 10.5 37 8.9 WNW 22 48 12 26 1011.5 1011.5 0.0
23/11:30am 26.0 22.5 11.0 39 8.5 W 20 35 11 19 1011.9 1011.9 0.0
23/11:00am 25.5 23.2 11.7 42 7.9 WNW 15 28 8 15 1012.4 1012.4 0.0
23/10:30am 24.3 22.6 12.3 47 6.9 NW 13 24 7 13 1012.7 1012.7 0.0
23/10:00am 22.4 21.7 13.2 56 5.3 NNW 9 13 5 7 1013.0 1013.0 0.0
23/09:30am 19.6 19.4 13.5 68 3.5 WNW 7 13 4 7 1013.4 1013.4 0.0
23/09:00am 17.7 17.5 13.6 77 2.3 NNW 7 9 4 5 1013.7 1013.7 0.0
23/08:30am 13.6 13.2 12.3 92 0.7 WSW 6 9 3 5 1014.1 1014.1 0.0
23/08:00am 14.1 15.0 13.0 93 0.6 CALM 0 0 0 0 1014.4 1014.3 0.0
23/07:30am 12.4 11.8 11.8 96 0.3 WNW 6 7 3 4 1014.4 1014.3 0.0
23/07:15am 11.4 10.6 10.9 97 0.3 W 6 9 3 5 1014.4 1014.3 0.0
23/07:00am 11.0 9.5 10.4 96 0.3 W 9 11 5 6 1014.6 1014.5 0.0
23/06:30am 11.3 9.9 10.8 97 0.3 WSW 9 13 5 7 1014.7 1014.6 0.0
23/06:00am 11.4 10.0 10.9 97 0.3 WSW 9 15 5 8 1015.1 1015.0 0.0
23/05:30am 11.2 9.7 10.7 97 0.3 SW 9 11 5 6 1015.3 1015.2 0.0
23/05:00am 10.9 9.9 10.4 97 0.3 WSW 6 7 3 4 1015.4 1015.3 0.0
23/04:30am 10.6 9.3 10.0 96 0.3 WSW 7 9 4 5 1015.6 1015.5 0.0
23/04:00am 11.0 10.4 10.5 97 0.3 WSW 4 7 2 4 1015.9 1015.8 0.0
23/03:47am 10.4 9.1 9.8 96 0.3 WSW 7 9 4 5 1016.0 1015.9 0.0
23/03:30am 10.1 8.6 9.3 95 0.4 WSW 7 7 4 4 1016.2 1016.1 0.0
23/03:24am 10.2 9.0 9.4 95 0.4 WSW 6 7 3 4 1016.4 1016.3 0.0
23/03:00am 11.0 11.2 10.4 96 0.3 CALM 0 0 0 0 1016.7 1016.6 0.0
23/02:30am 10.3 9.1 9.4 94 0.5 WSW 6 7 3 4 1017.1 1017.0 0.0
23/02:00am 10.7 10.3 9.8 94 0.5 WSW 2 7 1 4 1017.2 1017.1 0.0
23/01:30am 11.4 11.6 10.6 95 0.4 CALM 0 0 0 0 1017.3 1017.2 0.0
23/01:00am 11.4 11.6 10.5 94 0.5 CALM 0 0 0 0 1017.7 1017.6 0.0
23/12:30am 11.3 9.7 10.2 93 0.6 WSW 9 9 5 5 1017.9 1017.8 0.0
23/12:06am 12.6 13.1 11.7 94 0.5 CALM 0 0 0 0 1018.1 1018.0 0.0
23/12:00am 12.8 13.3 11.7 93 0.6 CALM 0 0 0 0 1018.1 1018.0 0.0
 
Date/Time
EST
Temp
°C
App
Temp
°C
Dew
Point
Rel
Hum
%
Delta-T
°C
Wind Press
QNH
hPa
Press
MSL
hPa
Rain
since 9 am
mm
Dir
 
Spd
km/h
Gust
km/h
Spd
kts
Gust
kts
22/11:30pm 12.7 13.1 11.3 91 0.7 CALM 0 0 0 0 1018.3 1018.2 0.0
22/11:00pm 13.5 14.2 12.2 92 0.7 CALM 0 0 0 0 1018.5 1018.4 0.0
22/10:30pm 13.5 14.2 12.2 92 0.7 CALM 0 0 0 0 1018.7 1018.6 0.0
22/10:00pm 14.0 13.8 12.9 93 0.6 SW 6 7 3 4 1019.2 1019.1 0.0
22/09:30pm 13.7 13.3 12.4 92 0.7 WSW 6 11 3 6 1019.3 1019.2 0.0
22/09:00pm 14.8 14.6 13.0 89 1.0 SSE 6 9 3 5 1019.2 1019.1 0.0
22/08:30pm 15.3 14.7 13.5 89 1.0 SE 9 9 5 5 1019.4 1019.3 0.0
22/08:00pm 15.7 15.2 13.9 89 1.0 SE 9 11 5 6 1019.6 1019.5 0.0
22/07:30pm 16.1 17.0 13.9 87 1.2 ESE 2 6 1 3 1019.7 1019.6 0.0
22/07:00pm 16.6 16.7 13.9 84 1.5 E 6 7 3 4 1019.6 1019.5 0.0
22/06:30pm 18.2 18.4 14.1 77 2.4 E 6 7 3 4 1019.6 1019.5 0.0
22/06:00pm 19.0 18.8 14.7 76 2.5 E 9 11 5 6 1019.4 1019.3 0.0
22/05:30pm 19.6 19.4 14.8 74 2.8 E 9 11 5 6 1019.1 1019.0 0.0
22/05:00pm 20.0 20.4 15.2 74 2.8 ENE 7 9 4 5 1019.4 1019.3 0.0
22/04:30pm 21.1 21.4 15.0 68 3.6 ENE 7 9 4 5 1019.5 1019.4 0.0
22/04:00pm 22.3 22.2 14.9 63 4.4 ENE 9 13 5 7 1019.5 1019.4 0.0
22/03:30pm 23.0 22.5 14.8 60 4.9 E 11 15 6 8 1019.6 1019.5 0.0
22/03:00pm 23.4 22.5 13.8 54 5.6 ENE 11 15 6 8 1020.0 1019.9 0.0
22/02:30pm 24.1 23.8 12.7 49 6.6 NNE 6 11 3 6 1020.2 1020.1 0.0
22/02:00pm 23.5 24.0 12.8 51 6.1 E 2 9 1 5 1020.3 1020.2 0.0
22/01:30pm 22.7 21.7 12.3 52 5.9 ENE 9 15 5 8 1020.5 1020.4 0.0
22/01:00pm 22.2 21.4 13.0 56 5.3 NNE 9 15 5 8 1020.9 1020.8 0.0
22/12:30pm 21.8 20.8 12.4 55 5.3 NNE 9 15 5 8 1021.2 1021.1 0.0
22/12:00pm 21.7 21.6 13.9 61 4.5 N 7 13 4 7 1021.9 1021.9 0.0
22/11:30am 20.6 20.3 13.3 63 4.2 NNW 7 13 4 7 1022.6 1022.6 0.0
22/11:00am 19.9 19.3 13.6 67 3.6 NW 9 11 5 6 1023.5 1023.5 0.0
22/10:30am 19.0 18.3 13.2 69 3.3 NW 9 13 5 7 1023.9 1023.9 0.0
22/10:00am 18.1 17.8 13.2 73 2.8 W 7 11 4 6 1024.0 1024.0 0.0
22/09:30am 16.3 16.0 12.8 80 1.9 W 6 9 3 5 1024.3 1024.3 0.0
22/09:00am 14.3 13.5 11.8 85 1.3 WNW 7 11 4 6 1024.5 1024.5 0.0
22/08:30am 12.9 12.2 11.5 91 0.7 W 6 7 3 4 1024.3 1024.3 0.0
22/08:00am 11.8 12.1 10.9 94 0.5 CALM 0 0 0 0 1024.1 1024.1 0.0
22/07:30am 10.6 10.7 10.0 96 0.3 CALM 0 0 0 0 1024.1 1024.1 0.0
22/07:26am 10.5 10.5 9.9 96 0.3 CALM 0 0 0 0 1024.0 1024.0 0.0
22/07:00am 9.8 8.4 8.9 94 0.4 WSW 6 7 3 4 1024.2 1024.2 0.0
22/06:42am 10.3 9.1 9.4 94 0.5 SW 6 6 3 3 1024.2 1024.2 0.0
22/06:32am 10.6 9.5 9.8 95 0.4 SW 6 9 3 5 1024.0 1024.0 0.0
22/06:30am 10.7 9.6 9.9 95 0.4 SW 6 9 3 5 1024.0 1024.0 0.0
22/06:08am 10.7 10.0 9.9 95 0.4 WSW 4 6 2 3 1024.0 1024.0 0.0
22/06:00am 10.9 11.0 10.1 95 0.4 CALM 0 2 0 1 1024.0 1024.0 0.0

Other Formats:

Comma delimited format used in spreadsheet applications
http://www.bom.gov.au/fwo/IDN60801/IDN60801.95761.axf

JavaScript Object Notation format (JSON) in row-major order
http://www.bom.gov.au/fwo/IDN60801/IDN60801.95761.json